Time;durP1;ratioP1;P1;durP2;ratioP2;P2;SDS_P1;SDS_P2;PMS_P1;PMS_P2;Temp;Humidity;BMP_temperature;BMP_pressure;BME280_temperature;BME280_humidity;BME280_pressure;Samples;Min_cycle;Max_cycle;Signal;HPM_P1;HPM_P2
2022/07/17 00:02:03;;;;;;;4.68;1.25;;;16.20;99.90;;;;;;5044681;28;20037;-62
2022/07/17 00:04:29;;;;;;;4.28;1.33;;;16.20;99.90;;;;;;5044395;28;20036;-62
2022/07/17 00:06:55;;;;;;;1.40;0.90;;;16.10;99.90;;;;;;5034433;28;20041;-62
2022/07/17 00:09:20;;;;;;;2.53;1.27;;;16.20;99.90;;;;;;5033792;28;20072;-62
2022/07/17 00:11:46;;;;;;;1.73;0.60;;;16.20;99.90;;;;;;5046527;28;20033;-63
2022/07/17 00:14:12;;;;;;;3.05;1.60;;;16.30;99.90;;;;;;5046214;28;20009;-62
2022/07/17 00:16:37;;;;;;;5.13;1.45;;;16.30;99.90;;;;;;5041175;28;20033;-62
2022/07/17 00:19:03;;;;;;;5.22;1.45;;;16.20;99.90;;;;;;5033502;28;20031;-62
2022/07/17 00:21:29;;;;;;;2.53;1.10;;;16.20;99.90;;;;;;5032788;28;20037;-62
2022/07/17 00:23:54;;;;;;;3.75;1.27;;;16.10;99.90;;;;;;5034294;28;20385;-62
2022/07/17 00:26:20;;;;;;;4.32;1.10;;;16.10;99.90;;;;;;5033360;28;20068;-62
2022/07/17 00:28:46;;;;;;;5.90;0.93;;;16.00;99.90;;;;;;5032782;28;20128;-62
2022/07/17 00:31:11;;;;;;;1.95;0.88;;;16.00;99.90;;;;;;5034270;28;20040;-62
2022/07/17 00:33:37;;;;;;;2.17;0.98;;;15.90;99.90;;;;;;5045601;28;20035;-62
2022/07/17 00:36:03;;;;;;;4.03;0.93;;;15.90;99.90;;;;;;5041241;28;23060;-63
2022/07/17 00:38:29;;;;;;;10.18;1.67;;;15.80;99.90;;;;;;5036743;28;20040;-63
2022/07/17 00:40:56;;;;;;;4.57;1.42;;;15.80;99.90;;;;;;5042084;28;20018;-63
2022/07/17 00:43:23;;;;;;;5.93;1.40;;;15.70;99.90;;;;;;5041078;28;20075;-61
2022/07/17 00:46:01;;;;;;;1.80;1.10;;;15.70;99.90;;;;;;5036501;28;20473;-62
2022/07/17 00:48:27;;;;;;;2.55;1.10;;;15.70;99.90;;;;;;5045650;28;20056;-62
2022/07/17 00:50:53;;;;;;;4.72;1.33;;;15.70;99.90;;;;;;5036874;28;20056;-62
2022/07/17 00:53:19;;;;;;;2.13;1.13;;;15.60;99.90;;;;;;5032002;28;20014;-62
2022/07/17 00:55:47;;;;;;;2.92;1.45;;;15.50;99.90;;;;;;5045414;28;20041;-63
2022/07/17 00:58:25;;;;;;;5.43;1.17;;;15.40;99.90;;;;;;5043133;28;20469;-63
2022/07/17 01:00:53;;;;;;;6.63;1.90;;;15.40;99.90;;;;;;5039216;28;20135;-62
2022/07/17 01:03:21;;;;;;;2.53;0.90;;;15.50;99.90;;;;;;5041500;28;20037;-63
2022/07/17 01:05:46;;;;;;;6.68;1.52;;;15.40;99.90;;;;;;5045691;28;20044;-61
2022/07/17 01:08:12;;;;;;;3.75;1.73;;;15.30;99.90;;;;;;5043817;28;20034;-62
2022/07/17 01:10:38;;;;;;;5.45;1.40;;;15.20;99.90;;;;;;5038404;28;20082;-62
2022/07/17 01:13:05;;;;;;;4.68;1.40;;;15.10;99.90;;;;;;5035307;28;20025;-61
2022/07/17 01:15:32;;;;;;;1.75;0.93;;;15.00;99.90;;;;;;5037838;28;20479;-62
2022/07/17 01:17:59;;;;;;;5.35;1.25;;;15.10;99.90;;;;;;5046609;28;20035;-62
2022/07/17 01:20:25;;;;;;;1.52;0.90;;;15.20;99.90;;;;;;5040249;28;20033;-62
2022/07/17 01:22:51;;;;;;;2.88;1.00;;;15.20;99.90;;;;;;5036451;28;20049;-62
2022/07/17 01:25:22;;;;;;;4.07;1.30;;;15.10;99.90;;;;;;5034811;28;20029;-62
2022/07/17 01:27:48;;;;;;;3.10;1.42;;;15.10;99.90;;;;;;5031705;28;20026;-61
2022/07/17 01:30:14;;;;;;;7.03;1.52;;;15.00;99.90;;;;;;5045800;28;20025;-63
2022/07/17 01:32:41;;;;;;;5.18;1.45;;;14.90;99.90;;;;;;5038476;28;20043;-62
2022/07/17 01:35:09;;;;;;;5.80;1.58;;;14.80;99.90;;;;;;5045712;28;20055;-62
2022/07/17 01:37:35;;;;;;;4.15;2.38;;;14.70;99.90;;;;;;5036338;28;20069;-62
2022/07/17 01:40:01;;;;;;;7.70;1.52;;;14.80;99.90;;;;;;5040045;28;20052;-62
2022/07/17 01:42:28;;;;;;;3.60;1.27;;;14.80;99.90;;;;;;5035248;28;20066;-62
2022/07/17 01:44:55;;;;;;;4.57;1.50;;;14.90;99.90;;;;;;5040298;28;20037;-63
2022/07/17 01:47:21;;;;;;;5.88;1.80;;;14.70;99.90;;;;;;5043612;28;20033;-61
2022/07/17 01:49:49;;;;;;;3.47;1.73;;;14.70;99.90;;;;;;5047825;28;20563;-62
2022/07/17 01:52:15;;;;;;;3.88;2.00;;;14.60;99.90;;;;;;5024706;28;20477;-62
2022/07/17 01:54:42;;;;;;;4.00;1.95;;;14.60;99.90;;;;;;5035257;28;20038;-62
2022/07/17 01:57:09;;;;;;;2.80;1.45;;;14.50;99.90;;;;;;5030768;28;20025;-61
2022/07/17 01:59:35;;;;;;;5.45;1.77;;;14.40;99.90;;;;;;5038850;28;20033;-64
2022/07/17 02:02:01;;;;;;;2.97;1.50;;;14.40;99.90;;;;;;5031176;28;20033;-61
2022/07/17 02:04:27;;;;;;;3.55;1.85;;;14.40;99.90;;;;;;5030550;28;20033;-62
2022/07/17 02:06:54;;;;;;;2.95;1.70;;;14.40;99.90;;;;;;5041342;28;20459;-62
2022/07/17 02:09:20;;;;;;;2.47;1.60;;;14.30;99.90;;;;;;5031578;28;20029;-62
2022/07/17 02:11:46;;;;;;;3.53;1.48;;;14.30;99.90;;;;;;5044372;28;20112;-62
2022/07/17 02:14:12;;;;;;;3.00;1.30;;;14.40;99.90;;;;;;5037814;28;20151;-62
2022/07/17 02:16:37;;;;;;;4.10;1.67;;;14.40;99.90;;;;;;5038014;28;20048;-63
2022/07/17 02:19:03;;;;;;;4.68;1.40;;;14.30;99.90;;;;;;5034595;28;20485;-64
2022/07/17 02:21:29;;;;;;;9.48;2.00;;;14.20;99.90;;;;;;5036139;28;20041;-62
2022/07/17 02:23:54;;;;;;;4.57;1.60;;;14.10;99.90;;;;;;5031989;28;20025;-60
2022/07/17 02:26:20;;;;;;;6.93;1.95;;;14.00;99.90;;;;;;5041974;28;20411;-62
2022/07/17 02:28:46;;;;;;;2.90;1.60;;;14.00;99.90;;;;;;5035232;28;20025;-61
2022/07/17 02:31:11;;;;;;;4.35;2.10;;;14.00;99.90;;;;;;5029545;28;20035;-62
2022/07/17 02:33:37;;;;;;;4.43;2.08;;;14.00;99.90;;;;;;5038115;28;20028;-62
2022/07/17 02:36:03;;;;;;;5.95;3.22;;;13.90;99.90;;;;;;5031009;28;20033;-62
2022/07/17 02:38:29;;;;;;;2.72;1.88;;;13.80;99.90;;;;;;5030079;28;20033;-62
2022/07/17 02:40:54;;;;;;;2.88;2.00;;;13.70;99.90;;;;;;5037929;28;20021;-62
2022/07/17 02:43:20;;;;;;;5.20;1.88;;;13.70;99.90;;;;;;5038745;28;20039;-62
2022/07/17 02:45:46;;;;;;;6.75;2.47;;;13.60;99.90;;;;;;5033945;28;20037;-62
2022/07/17 02:48:11;;;;;;;3.30;1.65;;;13.70;99.90;;;;;;5031807;28;20021;-62
2022/07/17 02:50:37;;;;;;;2.92;1.73;;;13.80;99.90;;;;;;5037007;28;20025;-63
2022/07/17 02:53:03;;;;;;;4.90;1.85;;;13.90;99.90;;;;;;5027725;28;20021;-62
2022/07/17 02:55:28;;;;;;;2.95;1.38;;;13.90;99.90;;;;;;5033919;28;20127;-63
2022/07/17 02:57:54;;;;;;;5.80;1.73;;;13.80;99.90;;;;;;5038237;28;20388;-63
2022/07/17 03:00:20;;;;;;;4.53;2.00;;;13.80;99.90;;;;;;5029337;28;20117;-63
2022/07/17 03:02:46;;;;;;;2.83;1.67;;;13.80;99.90;;;;;;5041492;28;20024;-61
2022/07/17 03:05:13;;;;;;;3.55;1.63;;;13.70;99.90;;;;;;5035482;28;20036;-61
2022/07/17 03:07:39;;;;;;;3.90;1.70;;;13.60;99.90;;;;;;5044245;28;20472;-62
2022/07/17 03:10:06;;;;;;;4.13;1.55;;;13.60;99.90;;;;;;5035573;28;20025;-61
2022/07/17 03:12:32;;;;;;;3.95;1.83;;;13.70;99.90;;;;;;5033772;28;20022;-62
2022/07/17 03:14:57;;;;;;;2.55;1.52;;;13.70;99.90;;;;;;5037883;28;20028;-62
2022/07/17 03:17:23;;;;;;;3.15;1.63;;;13.70;99.90;;;;;;5034110;28;20045;-62
2022/07/17 03:19:49;;;;;;;3.50;1.38;;;13.70;99.90;;;;;;5041083;28;20029;-62
2022/07/17 03:22:15;;;;;;;6.53;1.52;;;13.70;99.90;;;;;;5035394;28;20045;-62
2022/07/17 03:24:41;;;;;;;4.00;1.60;;;13.60;99.90;;;;;;5032970;28;20045;-62
2022/07/17 03:27:07;;;;;;;2.10;1.60;;;13.60;99.90;;;;;;5030193;28;20030;-61
2022/07/17 03:29:33;;;;;;;2.97;1.73;;;13.50;99.90;;;;;;5015695;28;20026;-62
2022/07/17 03:31:58;;;;;;;2.78;1.38;;;13.50;99.90;;;;;;5036326;28;20036;-61
2022/07/17 03:34:24;;;;;;;3.60;1.55;;;13.50;99.90;;;;;;5037024;28;20477;-62
2022/07/17 03:36:50;;;;;;;1.73;1.17;;;13.50;99.90;;;;;;5042342;28;20033;-62
2022/07/17 03:39:16;;;;;;;2.95;1.60;;;13.60;99.90;;;;;;5029131;28;20026;-61
2022/07/17 03:41:41;;;;;;;4.95;2.10;;;13.50;99.90;;;;;;5042954;28;20115;-61
2022/07/17 03:44:07;;;;;;;5.50;2.50;;;13.50;99.90;;;;;;5034818;28;20025;-61
2022/07/17 03:46:33;;;;;;;4.53;1.48;;;13.40;99.90;;;;;;5021214;28;20394;-61
2022/07/17 03:48:59;;;;;;;2.38;1.83;;;13.40;99.90;;;;;;5035554;28;20017;-61
2022/07/17 03:51:25;;;;;;;2.05;1.50;;;13.50;99.90;;;;;;5035560;28;20120;-61
2022/07/17 03:53:51;;;;;;;4.53;2.00;;;13.50;99.90;;;;;;5038953;28;20029;-61
2022/07/17 03:56:17;;;;;;;2.30;1.58;;;13.50;99.90;;;;;;5036220;28;20487;-61
2022/07/17 03:58:42;;;;;;;4.93;1.63;;;13.50;99.90;;;;;;5042125;28;20033;-61
2022/07/17 04:01:08;;;;;;;2.22;1.42;;;13.60;99.90;;;;;;5035478;28;20033;-61
2022/07/17 04:03:34;;;;;;;1.83;1.63;;;13.60;99.90;;;;;;5039508;28;20527;-61
2022/07/17 04:05:59;;;;;;;3.42;1.70;;;13.60;99.90;;;;;;5037737;28;20038;-61
2022/07/17 04:08:25;;;;;;;2.38;1.75;;;13.60;99.90;;;;;;5035894;28;20033;-61
2022/07/17 04:10:51;;;;;;;3.03;1.58;;;13.60;99.90;;;;;;5039782;28;20055;-62
2022/07/17 04:13:16;;;;;;;5.45;1.92;;;13.50;99.90;;;;;;5043530;28;20062;-61
2022/07/17 04:15:59;;;;;;;3.85;1.98;;;13.60;99.90;;;;;;5044853;28;20040;-61
2022/07/17 04:18:30;;;;;;;5.35;1.80;;;13.60;99.90;;;;;;5037430;28;20033;-61
2022/07/17 04:20:58;;;;;;;6.82;1.80;;;13.60;99.90;;;;;;5034693;28;20123;-61
2022/07/17 04:23:25;;;;;;;6.25;1.85;;;13.70;99.90;;;;;;5044068;28;20098;-62
2022/07/17 04:25:51;;;;;;;5.18;1.40;;;13.70;99.90;;;;;;5044396;28;20086;-61
2022/07/17 04:28:16;;;;;;;4.00;2.15;;;13.70;99.90;;;;;;5045779;28;20116;-62
2022/07/17 04:30:42;;;;;;;5.93;1.88;;;13.70;99.90;;;;;;5044862;28;20160;-61
2022/07/17 04:33:08;;;;;;;3.88;1.92;;;13.60;99.90;;;;;;5039576;28;20029;-62
2022/07/17 04:35:34;;;;;;;4.13;1.33;;;13.70;99.90;;;;;;5037163;28;20044;-61
2022/07/17 04:38:01;;;;;;;4.03;1.73;;;13.60;99.90;;;;;;5037587;28;20032;-61
2022/07/17 04:40:26;;;;;;;4.45;1.95;;;13.70;99.90;;;;;;5038325;28;20088;-61
2022/07/17 04:42:52;;;;;;;6.05;2.33;;;13.70;99.90;;;;;;5044322;28;20032;-61
2022/07/17 04:45:18;;;;;;;4.97;1.88;;;13.60;99.90;;;;;;5039980;28;20077;-61
2022/07/17 04:47:44;;;;;;;3.53;2.03;;;13.60;99.90;;;;;;5036988;28;20120;-62
2022/07/17 04:50:10;;;;;;;3.85;1.85;;;13.60;99.90;;;;;;5034258;28;20029;-62
2022/07/17 04:52:36;;;;;;;3.00;1.70;;;13.60;99.90;;;;;;5038909;28;20036;-62
2022/07/17 04:55:02;;;;;;;10.60;2.50;;;13.70;99.90;;;;;;5043922;28;20029;-63
2022/07/17 04:57:27;;;;;;;3.42;2.33;;;13.70;99.90;;;;;;5045425;28;20036;-62
2022/07/17 04:59:53;;;;;;;4.03;1.90;;;13.70;99.90;;;;;;5046060;28;20029;-62
2022/07/17 05:02:19;;;;;;;4.63;2.08;;;13.60;99.90;;;;;;5039883;28;20056;-62
2022/07/17 05:04:44;;;;;;;4.00;2.20;;;13.60;99.90;;;;;;5045855;28;20097;-62
2022/07/17 05:07:10;;;;;;;3.05;1.92;;;13.50;99.90;;;;;;5035212;28;20033;-62
2022/07/17 05:09:36;;;;;;;3.15;2.20;;;13.50;99.90;;;;;;5048341;28;20025;-63
2022/07/17 05:12:01;;;;;;;7.85;2.40;;;13.50;99.90;;;;;;5042969;28;20508;-61
2022/07/17 05:14:27;;;;;;;4.43;2.55;;;13.40;99.90;;;;;;5042128;28;20392;-61
2022/07/17 05:16:53;;;;;;;4.40;2.13;;;13.40;99.90;;;;;;5046183;28;20040;-63
2022/07/17 05:19:18;;;;;;;4.82;2.45;;;13.50;99.90;;;;;;5039764;28;20022;-63
2022/07/17 05:21:45;;;;;;;3.60;2.22;;;13.60;99.90;;;;;;5044191;28;20397;-62
2022/07/17 05:24:10;;;;;;;4.70;2.53;;;13.60;99.90;;;;;;5042222;28;20030;-64
2022/07/17 05:26:36;;;;;;;4.22;1.90;;;13.60;99.90;;;;;;5047744;28;20550;-63
2022/07/17 05:29:02;;;;;;;5.60;2.40;;;13.60;99.90;;;;;;5043492;28;20388;-63
2022/07/17 05:31:28;;;;;;;5.25;2.33;;;13.60;99.90;;;;;;5038171;28;20484;-63
2022/07/17 05:33:53;;;;;;;5.32;2.97;;;13.70;99.90;;;;;;5039935;28;20017;-63
2022/07/17 05:36:19;;;;;;;5.85;2.40;;;13.70;99.90;;;;;;5037277;28;20091;-62
2022/07/17 05:38:45;;;;;;;4.95;2.05;;;13.80;99.90;;;;;;5035236;28;20061;-64
2022/07/17 05:41:10;;;;;;;4.22;2.60;;;13.80;99.90;;;;;;5027591;28;20013;-62
2022/07/17 05:43:36;;;;;;;4.47;2.08;;;13.90;99.90;;;;;;5032757;28;20116;-63
2022/07/17 05:46:01;;;;;;;3.20;2.22;;;13.90;99.90;;;;;;5038994;28;20051;-64
2022/07/17 05:48:29;;;;;;;3.17;2.08;;;14.00;99.90;;;;;;5033929;28;20113;-63
2022/07/17 05:50:55;;;;;;;3.70;2.42;;;14.10;99.90;;;;;;5038813;28;20029;-63
2022/07/17 05:53:21;;;;;;;3.92;2.28;;;14.20;99.90;;;;;;5042042;28;20029;-62
2022/07/17 05:55:47;;;;;;;4.35;2.38;;;14.20;99.90;;;;;;5039481;28;20036;-61
2022/07/17 05:58:13;;;;;;;6.22;2.83;;;14.30;99.90;;;;;;5035781;28;20025;-63
2022/07/17 06:00:39;;;;;;;6.45;2.55;;;14.30;99.90;;;;;;5032914;28;20021;-63
2022/07/17 06:03:04;;;;;;;5.13;2.13;;;14.40;99.90;;;;;;5039302;28;20560;-63
2022/07/17 06:05:30;;;;;;;5.63;2.08;;;14.30;99.90;;;;;;5037857;28;20029;-63
2022/07/17 06:07:57;;;;;;;5.50;2.33;;;14.40;99.90;;;;;;5038083;28;20025;-63
2022/07/17 06:10:24;;;;;;;5.95;2.38;;;14.50;99.90;;;;;;5030133;28;20036;-63
2022/07/17 06:12:52;;;;;;;4.90;2.10;;;14.50;99.90;;;;;;5038648;28;20030;-63
2022/07/17 06:15:19;;;;;;;5.13;2.47;;;14.60;99.90;;;;;;5042650;28;20029;-63
2022/07/17 06:17:45;;;;;;;3.65;2.08;;;14.70;99.90;;;;;;5039529;28;20036;-63
2022/07/17 06:20:12;;;;;;;3.35;2.15;;;14.80;99.90;;;;;;5026309;28;20032;-63
2022/07/17 06:22:39;;;;;;;4.30;2.17;;;14.80;99.90;;;;;;5034397;28;20037;-63
2022/07/17 06:25:05;;;;;;;2.83;2.03;;;14.90;99.90;;;;;;5036919;28;20647;-64
2022/07/17 06:27:31;;;;;;;5.25;2.25;;;15.00;99.90;;;;;;5041505;28;20037;-62
2022/07/17 06:29:56;;;;;;;2.83;2.30;;;15.10;99.90;;;;;;5036741;28;20079;-64
2022/07/17 06:32:22;;;;;;;2.92;2.13;;;15.20;99.90;;;;;;5042484;28;20025;-63
2022/07/17 06:34:48;;;;;;;3.95;2.13;;;15.30;99.90;;;;;;5039022;28;20034;-62
2022/07/17 06:37:14;;;;;;;6.65;2.45;;;15.40;99.90;;;;;;5026448;28;20030;-62
2022/07/17 06:39:40;;;;;;;6.30;2.55;;;15.50;99.90;;;;;;5039763;28;20111;-62
2022/07/17 06:42:06;;;;;;;4.70;2.30;;;15.60;99.90;;;;;;5023404;28;20454;-62
2022/07/17 06:44:32;;;;;;;4.85;2.25;;;15.80;99.90;;;;;;5045645;28;20033;-62
2022/07/17 06:46:57;;;;;;;4.60;2.40;;;15.90;99.90;;;;;;5033607;28;20543;-62
2022/07/17 06:49:23;;;;;;;2.92;1.90;;;16.10;99.90;;;;;;5032549;28;20337;-62
2022/07/17 06:51:49;;;;;;;3.47;1.98;;;16.20;99.90;;;;;;5036890;28;20414;-62
2022/07/17 06:54:17;;;;;;;3.88;1.80;;;16.20;99.90;;;;;;5032546;28;20428;-62
2022/07/17 06:56:43;;;;;;;7.80;2.25;;;16.30;99.90;;;;;;5038153;28;20063;-62
2022/07/17 06:59:09;;;;;;;4.63;1.75;;;16.40;99.90;;;;;;5032252;28;20061;-62
2022/07/17 07:01:35;;;;;;;3.25;1.80;;;16.50;99.90;;;;;;5031188;28;20026;-62
2022/07/17 07:04:02;;;;;;;4.85;1.92;;;16.60;99.90;;;;;;5032854;28;20033;-62
2022/07/17 07:06:27;;;;;;;4.60;1.70;;;16.70;99.90;;;;;;5039327;28;20044;-62
2022/07/17 07:08:53;;;;;;;5.63;1.70;;;16.80;99.90;;;;;;5040325;28;20025;-62
2022/07/17 07:11:19;;;;;;;6.20;2.15;;;16.90;99.90;;;;;;5037321;28;20392;-62
2022/07/17 07:13:45;;;;;;;2.85;1.70;;;17.00;99.90;;;;;;5040379;28;20487;-63
2022/07/17 07:16:10;;;;;;;2.63;2.05;;;17.10;99.90;;;;;;5035067;28;20036;-63
2022/07/17 07:18:36;;;;;;;3.75;1.65;;;17.10;99.90;;;;;;5044473;28;20036;-62
2022/07/17 07:21:02;;;;;;;4.53;2.10;;;17.20;99.90;;;;;;5036866;28;20037;-63
2022/07/17 07:23:27;;;;;;;3.25;1.30;;;17.30;99.90;;;;;;5033910;28;20409;-62
2022/07/17 07:25:53;;;;;;;1.98;1.15;;;17.50;99.90;;;;;;5033553;28;20045;-62
2022/07/17 07:28:19;;;;;;;3.25;1.30;;;17.50;99.90;;;;;;5037336;28;20061;-62
2022/07/17 07:30:45;;;;;;;3.30;1.50;;;17.60;99.90;;;;;;5037693;28;20029;-63
2022/07/17 07:33:10;;;;;;;4.95;1.27;;;17.70;99.90;;;;;;5040650;28;20108;-62
2022/07/17 07:35:36;;;;;;;1.52;1.00;;;17.80;99.90;;;;;;5036874;28;20026;-63
2022/07/17 07:38:02;;;;;;;4.82;1.45;;;18.00;99.90;;;;;;5039128;28;20045;-62
2022/07/17 07:40:28;;;;;;;2.95;1.40;;;18.10;99.90;;;;;;5039388;28;20087;-62
2022/07/17 07:42:54;;;;;;;4.13;1.77;;;18.20;99.90;;;;;;5038914;28;20041;-63
2022/07/17 07:45:20;;;;;;;4.90;1.30;;;18.30;99.90;;;;;;5037397;28;20366;-62
2022/07/17 07:47:47;;;;;;;2.60;1.45;;;18.50;99.90;;;;;;5039430;28;20404;-62
2022/07/17 07:50:14;;;;;;;2.75;1.67;;;18.60;99.90;;;;;;5041047;28;20029;-62
2022/07/17 07:52:40;;;;;;;6.63;1.35;;;18.70;99.90;;;;;;5045287;28;20044;-63
2022/07/17 07:55:08;;;;;;;6.90;1.60;;;19.00;99.90;;;;;;5043999;28;20369;-64
2022/07/17 07:57:34;;;;;;;6.13;1.70;;;19.10;99.90;;;;;;5042785;28;20029;-63
2022/07/17 07:59:59;;;;;;;2.75;1.50;;;19.20;99.90;;;;;;5036808;28;20037;-63
2022/07/17 08:02:25;;;;;;;4.97;1.38;;;19.60;99.90;;;;;;5040196;28;20025;-63
2022/07/17 08:04:51;;;;;;;1.73;1.40;;;19.70;99.90;;;;;;5043232;28;20032;-63
2022/07/17 08:07:17;;;;;;;7.13;1.35;;;19.90;99.90;;;;;;5042342;28;20028;-64
2022/07/17 08:09:42;;;;;;;2.90;1.00;;;20.00;99.90;;;;;;5038510;28;20516;-63
2022/07/17 08:12:08;;;;;;;5.75;1.20;;;20.00;99.90;;;;;;5037820;28;20033;-63
2022/07/17 08:14:34;;;;;;;5.45;1.30;;;20.20;99.90;;;;;;5039159;28;20551;-63
2022/07/17 08:16:59;;;;;;;3.60;1.20;;;20.30;99.90;;;;;;5044295;28;20087;-63
2022/07/17 08:19:25;;;;;;;4.65;1.20;;;20.50;99.90;;;;;;5039817;28;20080;-63
2022/07/17 08:21:50;;;;;;;4.28;1.08;;;20.60;99.90;;;;;;5046271;28;20071;-63
2022/07/17 08:24:16;;;;;;;2.20;1.30;;;20.60;99.90;;;;;;5042690;28;20539;-62
2022/07/17 08:26:43;;;;;;;6.28;1.92;;;20.50;99.90;;;;;;5039826;28;20528;-63
2022/07/17 08:29:08;;;;;;;2.95;1.17;;;20.50;99.90;;;;;;5043297;28;20399;-62
2022/07/17 08:31:34;;;;;;;1.83;0.95;;;20.60;99.90;;;;;;5039170;28;20542;-62
2022/07/17 08:34:00;;;;;;;2.50;1.27;;;20.60;99.90;;;;;;5045115;28;20033;-62
2022/07/17 08:36:25;;;;;;;5.15;1.45;;;20.70;99.90;;;;;;5031301;28;20408;-63
2022/07/17 08:38:51;;;;;;;2.40;1.08;;;21.00;99.90;;;;;;5034200;28;20080;-63
2022/07/17 08:41:21;;;;;;;1.92;0.93;;;21.10;99.90;;;;;;5044457;28;20086;-63
2022/07/17 08:43:48;;;;;;;2.33;1.25;;;21.40;99.90;;;;;;5021268;28;20025;-63
2022/07/17 08:46:15;;;;;;;3.05;1.10;;;21.50;99.90;;;;;;5043606;28;20102;-63
2022/07/17 08:48:44;;;;;;;1.73;1.02;;;21.70;99.90;;;;;;5033620;28;20021;-62
2022/07/17 08:51:11;;;;;;;3.92;1.30;;;21.90;99.90;;;;;;5030170;28;20037;-63
2022/07/17 08:53:37;;;;;;;2.15;0.95;;;21.90;99.90;;;;;;5036262;28;20037;-62
2022/07/17 08:56:03;;;;;;;2.80;1.40;;;22.00;99.90;;;;;;5040033;28;20021;-64
2022/07/17 08:58:29;;;;;;;6.10;0.88;;;22.10;99.90;;;;;;5039340;28;20033;-63
2022/07/17 09:00:55;;;;;;;3.03;1.08;;;22.30;99.90;;;;;;5032046;28;20040;-64
2022/07/17 09:03:23;;;;;;;2.92;1.08;;;22.40;99.20;;;;;;5041133;28;20029;-65
2022/07/17 09:05:49;;;;;;;4.13;1.10;;;22.50;98.70;;;;;;5040136;28;20033;-66
2022/07/17 09:08:21;;;;;;;4.50;1.15;;;22.80;98.90;;;;;;5031400;28;20033;-63
2022/07/17 09:10:49;;;;;;;5.38;1.20;;;23.00;97.90;;;;;;5032963;28;20053;-66
2022/07/17 09:13:30;;;;;;;3.35;1.02;;;23.00;97.30;;;;;;5038589;28;20480;-66
2022/07/17 09:16:05;;;;;;;1.38;0.88;;;23.00;97.00;;;;;;5034143;28;20025;-66
2022/07/17 09:18:31;;;;;;;2.30;1.10;;;23.10;97.30;;;;;;5037380;28;20103;-66
2022/07/17 09:20:58;;;;;;;2.88;1.10;;;23.30;97.20;;;;;;5028409;28;20057;-64
2022/07/17 09:23:26;;;;;;;4.55;1.38;;;23.40;99.50;;;;;;5032915;28;20049;-59
2022/07/17 09:25:54;;;;;;;3.20;1.08;;;23.30;98.50;;;;;;5045495;28;20116;-62
2022/07/17 09:28:21;;;;;;;2.65;1.02;;;23.30;95.90;;;;;;5041469;28;20537;-63
2022/07/17 09:30:53;;;;;;;2.53;1.23;;;23.50;94.90;;;;;;5039801;28;20029;-63
2022/07/17 09:33:26;;;;;;;1.88;1.10;;;23.70;94.10;;;;;;5034838;28;20029;-59
2022/07/17 09:35:57;;;;;;;2.30;0.95;;;23.80;91.60;;;;;;5036537;28;20033;-59
2022/07/17 09:38:35;;;;;;;2.03;0.82;;;23.90;91.00;;;;;;5026288;28;20477;-59
2022/07/17 09:41:11;;;;;;;3.03;1.27;;;24.00;87.10;;;;;;5032400;28;20120;-59
2022/07/17 09:43:53;;;;;;;4.18;1.00;;;24.10;90.00;;;;;;5007467;28;20029;-60
2022/07/17 09:46:31;;;;;;;1.90;0.98;;;24.30;89.60;;;;;;5035005;28;20132;-61
2022/07/17 09:49:01;;;;;;;2.60;0.90;;;24.50;91.40;;;;;;5034752;28;20028;-61
2022/07/17 09:51:28;;;;;;;2.38;1.50;;;24.50;83.30;;;;;;5043020;28;20502;-61
2022/07/17 09:53:59;;;;;;;2.85;1.08;;;24.50;83.10;;;;;;5035475;28;20386;-61
2022/07/17 09:56:27;;;;;;;4.72;1.38;;;24.30;86.20;;;;;;5038948;28;20437;-60
2022/07/17 09:58:56;;;;;;;3.13;1.10;;;24.40;88.40;;;;;;5035220;28;20057;-60
2022/07/17 10:01:22;;;;;;;1.90;1.00;;;24.60;84.50;;;;;;5042382;28;20087;-60
2022/07/17 10:03:53;;;;;;;3.67;1.08;;;24.60;84.90;;;;;;5037625;28;20026;-61
2022/07/17 10:06:22;;;;;;;2.33;0.85;;;24.50;84.00;;;;;;5038958;28;20044;-60
2022/07/17 10:08:49;;;;;;;1.58;0.98;;;24.60;84.50;;;;;;5031829;28;20037;-60
2022/07/17 10:11:16;;;;;;;2.80;0.98;;;24.70;82.20;;;;;;5040048;28;20374;-60
2022/07/17 10:13:45;;;;;;;3.55;2.33;;;24.70;81.90;;;;;;5040036;28;20439;-61
2022/07/17 10:16:11;;;;;;;2.90;1.20;;;24.80;79.80;;;;;;5031957;28;20547;-60
2022/07/17 10:18:44;;;;;;;2.50;0.95;;;25.00;84.10;;;;;;5035115;28;20477;-60
2022/07/17 10:21:10;;;;;;;2.25;1.13;;;25.10;78.30;;;;;;5036818;28;20047;-61
2022/07/17 10:23:36;;;;;;;3.92;1.02;;;25.20;76.70;;;;;;5039623;28;20552;-61
2022/07/17 10:26:02;;;;;;;2.25;1.10;;;25.30;77.10;;;;;;5028939;28;20833;-60
2022/07/17 10:28:45;;;;;;;2.50;1.02;;;25.40;75.90;;;;;;5041965;28;20116;-60
2022/07/17 10:31:23;;;;;;;3.00;1.13;;;25.50;73.80;;;;;;5037218;28;20033;-60
2022/07/17 10:34:00;;;;;;;1.23;0.77;;;25.60;75.20;;;;;;5036446;28;20029;-60
2022/07/17 10:36:52;;;;;;;5.15;1.05;;;25.80;72.00;;;;;;5027153;28;20038;-60
2022/07/17 10:39:20;;;;;;;;;;;25.90;69.20;;;;;;5023237;28;20037;-60
2022/07/17 10:41:59;;;;;;;2.80;1.02;;;25.80;68.20;;;;;;5040186;28;19917;-61
2022/07/17 10:44:26;;;;;;;2.97;0.95;;;25.80;67.90;;;;;;5031132;28;20128;-61
2022/07/17 10:46:53;;;;;;;3.05;1.13;;;25.80;69.40;;;;;;5027764;28;20053;-60
2022/07/17 10:49:19;;;;;;;2.28;1.20;;;25.80;68.70;;;;;;5031069;28;20032;-59
2022/07/17 10:51:46;;;;;;;3.15;0.90;;;25.80;69.20;;;;;;5041863;28;20033;-60
2022/07/17 10:54:12;;;;;;;1.27;0.90;;;26.10;59.20;;;;;;5020814;28;20033;-58
2022/07/17 10:56:44;;;;;;;2.15;1.08;;;26.20;62.50;;;;;;5039485;28;20191;-58
2022/07/17 10:59:11;;;;;;;1.80;1.33;;;26.20;63.10;;;;;;5030585;28;20031;-59
2022/07/17 11:01:37;;;;;;;4.05;1.08;;;26.30;63.50;;;;;;5030252;28;20037;-59
2022/07/17 11:04:04;;;;;;;2.63;1.45;;;26.40;59.10;;;;;;5026109;28;20539;-59
2022/07/17 11:06:34;;;;;;;2.35;1.30;;;26.50;54.60;;;;;;5028040;28;20408;-59
2022/07/17 11:09:02;;;;;;;4.85;1.02;;;26.80;54.00;;;;;;5025442;28;20420;-59
2022/07/17 11:11:50;;;;;;;2.85;1.40;;;27.00;57.10;;;;;;5032468;28;20029;-58
2022/07/17 11:14:20;;;;;;;3.10;1.42;;;27.60;57.60;;;;;;5033299;28;20048;-60
2022/07/17 11:16:53;;;;;;;2.13;1.00;;;28.00;54.70;;;;;;5039403;28;20495;-59
2022/07/17 11:19:25;;;;;;;2.58;1.40;;;28.30;53.00;;;;;;5040251;28;20079;-59
2022/07/17 11:21:52;;;;;;;2.35;1.20;;;28.70;51.60;;;;;;5030617;28;20104;-59
2022/07/17 11:24:18;;;;;;;6.93;1.60;;;29.00;51.20;;;;;;5035759;28;20492;-59
2022/07/17 11:26:45;;;;;;;1.42;1.25;;;29.20;50.20;;;;;;5027837;28;20045;-59
2022/07/17 11:29:11;;;;;;;3.25;1.42;;;29.40;49.10;;;;;;5035311;28;20029;-59
2022/07/17 11:31:36;;;;;;;2.67;1.42;;;29.10;48.90;;;;;;5034857;28;20397;-59
2022/07/17 11:34:11;;;;;;;1.67;1.15;;;29.00;47.50;;;;;;5028813;28;20040;-59
2022/07/17 11:36:39;;;;;;;1.83;1.48;;;29.10;47.80;;;;;;5032412;28;20461;-60
2022/07/17 11:39:11;;;;;;;1.98;1.40;;;29.20;48.00;;;;;;5032535;28;20025;-59
2022/07/17 11:41:39;;;;;;;1.70;1.50;;;29.60;47.30;;;;;;5042055;28;20033;-58
2022/07/17 11:44:09;;;;;;;3.55;1.80;;;29.80;46.30;;;;;;5025889;28;20044;-59
2022/07/17 11:46:35;;;;;;;2.05;1.55;;;30.00;45.40;;;;;;5029201;28;20117;-59
2022/07/17 11:49:02;;;;;;;5.45;1.95;;;30.40;44.30;;;;;;5034415;28;20022;-59
2022/07/17 11:51:38;;;;;;;3.03;1.77;;;30.50;43.60;;;;;;5043804;28;20396;-59
2022/07/17 11:54:10;;;;;;;2.75;1.55;;;30.80;42.30;;;;;;5029017;28;20593;-59
2022/07/17 11:56:35;;;;;;;4.90;2.10;;;30.90;43.00;;;;;;5036563;28;20029;-59
2022/07/17 11:59:02;;;;;;;3.38;1.73;;;30.80;42.20;;;;;;5033937;28;20385;-59
2022/07/17 12:01:30;;;;;;;4.80;2.30;;;31.00;41.70;;;;;;5033231;28;20022;-59
2022/07/17 12:03:59;;;;;;;1.60;1.50;;;31.30;41.40;;;;;;5034481;28;20022;-58
2022/07/17 12:06:26;;;;;;;1.60;1.50;;;31.40;39.90;;;;;;5031071;28;20512;-59
2022/07/17 12:08:53;;;;;;;3.95;1.90;;;31.10;39.40;;;;;;5031372;28;20034;-59
2022/07/17 12:11:19;;;;;;;2.83;1.65;;;31.40;40.10;;;;;;5034635;28;20044;-59
2022/07/17 12:13:47;;;;;;;4.13;1.80;;;31.40;38.60;;;;;;5039569;28;20021;-59
2022/07/17 12:16:29;;;;;;;3.70;1.75;;;30.80;39.50;;;;;;5031345;28;20606;-59
2022/07/17 12:19:00;;;;;;;5.15;1.30;;;31.00;39.00;;;;;;5040208;28;20096;-58
2022/07/17 12:21:26;;;;;;;2.43;1.50;;;30.90;38.90;;;;;;5036384;28;20116;-59
2022/07/17 12:23:58;;;;;;;1.50;1.40;;;30.90;38.80;;;;;;5037679;28;20056;-59
2022/07/17 12:26:24;;;;;;;4.55;2.10;;;30.70;38.80;;;;;;5030834;28;20043;-59
2022/07/17 12:28:50;;;;;;;2.67;1.58;;;30.90;39.70;;;;;;5044205;28;20104;-59
2022/07/17 12:31:15;;;;;;;2.80;1.60;;;31.60;40.10;;;;;;5037933;28;20021;-60
2022/07/17 12:33:43;;;;;;;4.15;1.45;;;32.00;38.50;;;;;;5035427;28;20408;-59
2022/07/17 12:36:09;;;;;;;3.65;1.70;;;32.40;38.10;;;;;;5033136;28;20029;-59
2022/07/17 12:38:35;;;;;;;2.70;1.70;;;32.50;38.40;;;;;;5019284;28;20033;-59
2022/07/17 12:41:00;;;;;;;4.70;2.70;;;32.10;38.40;;;;;;5039119;28;20029;-59
2022/07/17 12:43:26;;;;;;;2.80;2.42;;;32.00;39.20;;;;;;5031742;28;20036;-60
2022/07/17 12:45:52;;;;;;;2.17;1.98;;;32.30;38.20;;;;;;5028293;28;20200;-59
2022/07/17 12:48:18;;;;;;;3.03;1.80;;;32.00;38.30;;;;;;5038235;28;20033;-60